sensor_id;sensor_type;location;lat;lon;timestamp;P1;durP1;ratioP1;P2;durP2;ratioP2
47239;SDS011;32978;53.586;10.052;2023-12-20T00:01:51;14.98;;;5.05;;
47239;SDS011;32978;53.586;10.052;2023-12-20T00:06:47;18.95;;;5.93;;
47239;SDS011;32978;53.586;10.052;2023-12-20T00:11:44;15.63;;;5.80;;
47239;SDS011;32978;53.586;10.052;2023-12-20T00:16:40;16.27;;;5.68;;
47239;SDS011;32978;53.586;10.052;2023-12-20T00:21:36;16.13;;;5.43;;
47239;SDS011;32978;53.586;10.052;2023-12-20T00:26:32;10.43;;;5.40;;
47239;SDS011;32978;53.586;10.052;2023-12-20T00:31:29;14.77;;;5.82;;
47239;SDS011;32978;53.586;10.052;2023-12-20T00:36:25;14.63;;;5.28;;
47239;SDS011;32978;53.586;10.052;2023-12-20T00:41:21;17.40;;;5.50;;
47239;SDS011;32978;53.586;10.052;2023-12-20T00:46:18;16.13;;;6.35;;
47239;SDS011;32978;53.586;10.052;2023-12-20T00:51:15;10.77;;;5.68;;
47239;SDS011;32978;53.586;10.052;2023-12-20T00:56:11;12.55;;;5.43;;
47239;SDS011;32978;53.586;10.052;2023-12-20T01:01:08;18.63;;;5.78;;
47239;SDS011;32978;53.586;10.052;2023-12-20T01:06:04;18.65;;;6.57;;
47239;SDS011;32978;53.586;10.052;2023-12-20T01:11:03;7.90;;;5.97;;
47239;SDS011;32978;53.586;10.052;2023-12-20T01:15:59;14.70;;;6.28;;
47239;SDS011;32978;53.586;10.052;2023-12-20T01:20:56;9.70;;;4.95;;
47239;SDS011;32978;53.586;10.052;2023-12-20T01:25:52;17.48;;;6.00;;
47239;SDS011;32978;53.586;10.052;2023-12-20T01:30:50;11.75;;;5.65;;
47239;SDS011;32978;53.586;10.052;2023-12-20T01:35:46;16.85;;;6.25;;
47239;SDS011;32978;53.586;10.052;2023-12-20T01:40:42;10.95;;;5.50;;
47239;SDS011;32978;53.586;10.052;2023-12-20T01:45:39;17.80;;;5.45;;
47239;SDS011;32978;53.586;10.052;2023-12-20T01:50:36;18.85;;;5.97;;
47239;SDS011;32978;53.586;10.052;2023-12-20T01:55:36;14.73;;;5.13;;
47239;SDS011;32978;53.586;10.052;2023-12-20T02:00:34;15.85;;;5.72;;
47239;SDS011;32978;53.586;10.052;2023-12-20T02:05:32;17.75;;;5.07;;
47239;SDS011;32978;53.586;10.052;2023-12-20T02:10:28;19.13;;;5.43;;
47239;SDS011;32978;53.586;10.052;2023-12-20T02:15:25;10.38;;;4.65;;
47239;SDS011;32978;53.586;10.052;2023-12-20T02:20:22;14.50;;;5.32;;
47239;SDS011;32978;53.586;10.052;2023-12-20T02:25:18;10.68;;;4.60;;
47239;SDS011;32978;53.586;10.052;2023-12-20T02:30:15;15.75;;;5.25;;
47239;SDS011;32978;53.586;10.052;2023-12-20T02:35:11;15.02;;;5.18;;
47239;SDS011;32978;53.586;10.052;2023-12-20T02:45:19;14.32;;;4.75;;
47239;SDS011;32978;53.586;10.052;2023-12-20T02:50:15;18.55;;;4.88;;
47239;SDS011;32978;53.586;10.052;2023-12-20T02:55:11;8.40;;;4.70;;
47239;SDS011;32978;53.586;10.052;2023-12-20T03:00:08;9.68;;;5.07;;
47239;SDS011;32978;53.586;10.052;2023-12-20T03:05:05;11.43;;;5.10;;
47239;SDS011;32978;53.586;10.052;2023-12-20T03:10:02;10.88;;;5.10;;
47239;SDS011;32978;53.586;10.052;2023-12-20T03:20:11;13.25;;;5.18;;
47239;SDS011;32978;53.586;10.052;2023-12-20T03:25:08;14.63;;;5.43;;
47239;SDS011;32978;53.586;10.052;2023-12-20T03:35:05;11.35;;;4.85;;
47239;SDS011;32978;53.586;10.052;2023-12-20T03:40:02;8.80;;;4.03;;
47239;SDS011;32978;53.586;10.052;2023-12-20T03:44:59;15.95;;;5.45;;
47239;SDS011;32978;53.586;10.052;2023-12-20T03:49:55;19.65;;;5.13;;
47239;SDS011;32978;53.586;10.052;2023-12-20T03:54:51;16.27;;;5.20;;
47239;SDS011;32978;53.586;10.052;2023-12-20T03:59:48;12.50;;;5.20;;
47239;SDS011;32978;53.586;10.052;2023-12-20T04:04:44;13.30;;;4.95;;
47239;SDS011;32978;53.586;10.052;2023-12-20T04:09:40;13.93;;;4.90;;
47239;SDS011;32978;53.586;10.052;2023-12-20T04:14:37;18.23;;;5.28;;
47239;SDS011;32978;53.586;10.052;2023-12-20T04:19:33;22.90;;;5.80;;
47239;SDS011;32978;53.586;10.052;2023-12-20T04:24:30;9.60;;;4.85;;
47239;SDS011;32978;53.586;10.052;2023-12-20T04:29:26;17.88;;;5.78;;
47239;SDS011;32978;53.586;10.052;2023-12-20T04:34:22;18.98;;;5.45;;
47239;SDS011;32978;53.586;10.052;2023-12-20T04:39:19;13.05;;;5.43;;
47239;SDS011;32978;53.586;10.052;2023-12-20T04:44:15;11.63;;;5.45;;
47239;SDS011;32978;53.586;10.052;2023-12-20T04:49:12;10.98;;;5.43;;
47239;SDS011;32978;53.586;10.052;2023-12-20T04:54:08;11.85;;;5.72;;
47239;SDS011;32978;53.586;10.052;2023-12-20T04:59:06;13.93;;;5.15;;
47239;SDS011;32978;53.586;10.052;2023-12-20T05:04:02;15.30;;;5.88;;
47239;SDS011;32978;53.586;10.052;2023-12-20T05:08:58;17.25;;;6.32;;
47239;SDS011;32978;53.586;10.052;2023-12-20T05:13:55;11.93;;;5.40;;
47239;SDS011;32978;53.586;10.052;2023-12-20T05:18:52;14.07;;;6.03;;
47239;SDS011;32978;53.586;10.052;2023-12-20T05:23:49;14.85;;;5.95;;
47239;SDS011;32978;53.586;10.052;2023-12-20T05:28:48;13.95;;;5.15;;
47239;SDS011;32978;53.586;10.052;2023-12-20T05:33:47;8.70;;;5.63;;
47239;SDS011;32978;53.586;10.052;2023-12-20T05:38:47;17.63;;;5.80;;
47239;SDS011;32978;53.586;10.052;2023-12-20T05:43:43;11.35;;;5.05;;
47239;SDS011;32978;53.586;10.052;2023-12-20T05:48:39;18.48;;;5.15;;
47239;SDS011;32978;53.586;10.052;2023-12-20T05:53:36;13.85;;;5.82;;
47239;SDS011;32978;53.586;10.052;2023-12-20T05:58:32;20.92;;;5.25;;
47239;SDS011;32978;53.586;10.052;2023-12-20T06:03:29;13.68;;;6.15;;
47239;SDS011;32978;53.586;10.052;2023-12-20T06:08:25;16.42;;;5.38;;
47239;SDS011;32978;53.586;10.052;2023-12-20T06:13:22;13.30;;;5.05;;
47239;SDS011;32978;53.586;10.052;2023-12-20T06:18:18;13.88;;;5.72;;
47239;SDS011;32978;53.586;10.052;2023-12-20T06:23:14;18.88;;;6.65;;
47239;SDS011;32978;53.586;10.052;2023-12-20T06:28:11;18.38;;;6.10;;
47239;SDS011;32978;53.586;10.052;2023-12-20T06:33:10;18.40;;;6.43;;
47239;SDS011;32978;53.586;10.052;2023-12-20T06:38:07;11.75;;;6.00;;
47239;SDS011;32978;53.586;10.052;2023-12-20T06:43:05;16.23;;;6.57;;
47239;SDS011;32978;53.586;10.052;2023-12-20T06:48:16;16.48;;;6.22;;
47239;SDS011;32978;53.586;10.052;2023-12-20T06:53:14;14.88;;;6.68;;
47239;SDS011;32978;53.586;10.052;2023-12-20T06:58:10;16.73;;;6.25;;
47239;SDS011;32978;53.586;10.052;2023-12-20T07:03:07;11.00;;;5.85;;
47239;SDS011;32978;53.586;10.052;2023-12-20T07:08:03;12.88;;;5.88;;
47239;SDS011;32978;53.586;10.052;2023-12-20T07:13:00;14.45;;;6.53;;
47239;SDS011;32978;53.586;10.052;2023-12-20T07:17:56;16.45;;;6.90;;
47239;SDS011;32978;53.586;10.052;2023-12-20T07:22:53;15.18;;;7.20;;
47239;SDS011;32978;53.586;10.052;2023-12-20T07:27:49;19.33;;;6.20;;
47239;SDS011;32978;53.586;10.052;2023-12-20T07:32:46;16.00;;;7.03;;
47239;SDS011;32978;53.586;10.052;2023-12-20T07:37:43;15.00;;;6.00;;
47239;SDS011;32978;53.586;10.052;2023-12-20T07:42:40;13.05;;;6.20;;
47239;SDS011;32978;53.586;10.052;2023-12-20T07:47:37;16.63;;;5.85;;
47239;SDS011;32978;53.586;10.052;2023-12-20T07:52:33;12.75;;;5.78;;
47239;SDS011;32978;53.586;10.052;2023-12-20T07:57:29;19.58;;;6.40;;
47239;SDS011;32978;53.586;10.052;2023-12-20T08:02:26;17.50;;;6.05;;
47239;SDS011;32978;53.586;10.052;2023-12-20T08:07:22;15.02;;;6.60;;
47239;SDS011;32978;53.586;10.052;2023-12-20T08:12:19;19.55;;;5.88;;
47239;SDS011;32978;53.586;10.052;2023-12-20T08:17:15;15.02;;;6.97;;
47239;SDS011;32978;53.586;10.052;2023-12-20T08:22:12;15.07;;;6.40;;
47239;SDS011;32978;53.586;10.052;2023-12-20T08:27:08;14.13;;;6.22;;
47239;SDS011;32978;53.586;10.052;2023-12-20T08:32:05;17.00;;;5.97;;
47239;SDS011;32978;53.586;10.052;2023-12-20T08:37:02;18.52;;;5.22;;
47239;SDS011;32978;53.586;10.052;2023-12-20T08:41:58;26.17;;;5.82;;
47239;SDS011;32978;53.586;10.052;2023-12-20T08:46:54;25.23;;;6.20;;
47239;SDS011;32978;53.586;10.052;2023-12-20T08:51:53;23.35;;;6.88;;
47239;SDS011;32978;53.586;10.052;2023-12-20T08:56:49;17.08;;;6.15;;
47239;SDS011;32978;53.586;10.052;2023-12-20T09:01:46;20.55;;;5.43;;
47239;SDS011;32978;53.586;10.052;2023-12-20T09:06:44;17.85;;;5.15;;
47239;SDS011;32978;53.586;10.052;2023-12-20T09:11:40;14.50;;;5.38;;
47239;SDS011;32978;53.586;10.052;2023-12-20T09:16:37;15.38;;;5.20;;
47239;SDS011;32978;53.586;10.052;2023-12-20T09:26:52;6.90;;;3.50;;
47239;SDS011;32978;53.586;10.052;2023-12-20T09:31:48;7.95;;;3.70;;
47239;SDS011;32978;53.586;10.052;2023-12-20T09:36:46;6.97;;;3.28;;
47239;SDS011;32978;53.586;10.052;2023-12-20T09:41:43;6.93;;;3.67;;
47239;SDS011;32978;53.586;10.052;2023-12-20T09:46:43;5.75;;;3.15;;
47239;SDS011;32978;53.586;10.052;2023-12-20T09:51:40;6.85;;;4.15;;
47239;SDS011;32978;53.586;10.052;2023-12-20T09:56:36;6.95;;;4.10;;
47239;SDS011;32978;53.586;10.052;2023-12-20T10:01:33;6.45;;;5.47;;
47239;SDS011;32978;53.586;10.052;2023-12-20T10:06:30;6.10;;;4.15;;
47239;SDS011;32978;53.586;10.052;2023-12-20T10:11:26;5.95;;;4.95;;
47239;SDS011;32978;53.586;10.052;2023-12-20T10:16:27;6.82;;;5.30;;
47239;SDS011;32978;53.586;10.052;2023-12-20T10:21:24;4.75;;;4.22;;
47239;SDS011;32978;53.586;10.052;2023-12-20T10:26:22;4.97;;;4.47;;
47239;SDS011;32978;53.586;10.052;2023-12-20T10:31:26;6.57;;;4.70;;
47239;SDS011;32978;53.586;10.052;2023-12-20T10:36:23;8.23;;;4.22;;
47239;SDS011;32978;53.586;10.052;2023-12-20T10:41:22;8.30;;;5.03;;
47239;SDS011;32978;53.586;10.052;2023-12-20T10:46:20;7.47;;;4.53;;
47239;SDS011;32978;53.586;10.052;2023-12-20T10:51:17;7.43;;;5.18;;
47239;SDS011;32978;53.586;10.052;2023-12-20T10:56:15;5.38;;;4.72;;
47239;SDS011;32978;53.586;10.052;2023-12-20T11:01:13;8.13;;;5.32;;
47239;SDS011;32978;53.586;10.052;2023-12-20T11:06:19;8.88;;;5.47;;
47239;SDS011;32978;53.586;10.052;2023-12-20T11:11:26;5.82;;;4.50;;
47239;SDS011;32978;53.586;10.052;2023-12-20T11:16:23;13.07;;;5.45;;
47239;SDS011;32978;53.586;10.052;2023-12-20T11:21:25;7.90;;;4.20;;
47239;SDS011;32978;53.586;10.052;2023-12-20T11:26:28;9.77;;;5.38;;
47239;SDS011;32978;53.586;10.052;2023-12-20T11:31:25;7.78;;;4.53;;
47239;SDS011;32978;53.586;10.052;2023-12-20T11:36:22;4.38;;;3.80;;
47239;SDS011;32978;53.586;10.052;2023-12-20T11:41:22;8.18;;;4.45;;
47239;SDS011;32978;53.586;10.052;2023-12-20T11:46:19;5.70;;;5.10;;
47239;SDS011;32978;53.586;10.052;2023-12-20T11:51:16;9.02;;;4.97;;
47239;SDS011;32978;53.586;10.052;2023-12-20T11:56:13;8.20;;;4.95;;
47239;SDS011;32978;53.586;10.052;2023-12-20T12:01:09;11.40;;;5.03;;
47239;SDS011;32978;53.586;10.052;2023-12-20T12:06:05;17.73;;;5.57;;
47239;SDS011;32978;53.586;10.052;2023-12-20T12:11:02;12.35;;;4.78;;
47239;SDS011;32978;53.586;10.052;2023-12-20T12:15:58;13.70;;;4.80;;
47239;SDS011;32978;53.586;10.052;2023-12-20T12:21:01;20.45;;;6.60;;
47239;SDS011;32978;53.586;10.052;2023-12-20T12:26:05;12.23;;;4.65;;
47239;SDS011;32978;53.586;10.052;2023-12-20T13:00:36;10.80;;;5.40;;
47239;SDS011;32978;53.586;10.052;2023-12-20T16:16:16;18.85;;;6.93;;
47239;SDS011;32978;53.586;10.052;2023-12-20T16:22:03;12.23;;;6.40;;
47239;SDS011;32978;53.586;10.052;2023-12-20T16:27:02;12.30;;;6.07;;
47239;SDS011;32978;53.586;10.052;2023-12-20T16:31:59;17.65;;;6.70;;
47239;SDS011;32978;53.586;10.052;2023-12-20T16:36:56;12.90;;;6.03;;
47239;SDS011;32978;53.586;10.052;2023-12-20T16:41:54;21.27;;;7.03;;
47239;SDS011;32978;53.586;10.052;2023-12-20T16:46:50;21.15;;;7.55;;
47239;SDS011;32978;53.586;10.052;2023-12-20T17:07:21;9.40;;;4.40;;
47239;SDS011;32978;53.586;10.052;2023-12-20T17:12:18;5.70;;;4.68;;
47239;SDS011;32978;53.586;10.052;2023-12-20T17:17:14;15.02;;;4.95;;
47239;SDS011;32978;53.586;10.052;2023-12-20T17:22:10;14.48;;;6.32;;
47239;SDS011;32978;53.586;10.052;2023-12-20T17:27:07;12.93;;;5.63;;
47239;SDS011;32978;53.586;10.052;2023-12-20T17:32:05;15.90;;;6.30;;
47239;SDS011;32978;53.586;10.052;2023-12-20T17:37:02;12.93;;;6.57;;
47239;SDS011;32978;53.586;10.052;2023-12-20T17:41:58;18.38;;;7.15;;
47239;SDS011;32978;53.586;10.052;2023-12-20T17:46:55;18.77;;;6.57;;
47239;SDS011;32978;53.586;10.052;2023-12-20T17:51:51;20.73;;;7.28;;
47239;SDS011;32978;53.586;10.052;2023-12-20T17:56:48;21.67;;;7.22;;
47239;SDS011;32978;53.586;10.052;2023-12-20T21:18:04;9.18;;;5.90;;
47239;SDS011;32978;53.586;10.052;2023-12-20T21:23:01;8.18;;;5.65;;
47239;SDS011;32978;53.586;10.052;2023-12-20T21:27:59;12.15;;;6.30;;
47239;SDS011;32978;53.586;10.052;2023-12-20T21:32:56;10.07;;;6.30;;
47239;SDS011;32978;53.586;10.052;2023-12-20T21:37:52;16.13;;;6.05;;
47239;SDS011;32978;53.586;10.052;2023-12-20T21:42:48;10.75;;;6.05;;
47239;SDS011;32978;53.586;10.052;2023-12-20T21:47:45;12.65;;;7.10;;
47239;SDS011;32978;53.586;10.052;2023-12-20T21:52:42;10.85;;;6.68;;
47239;SDS011;32978;53.586;10.052;2023-12-20T21:57:39;8.75;;;6.18;;
47239;SDS011;32978;53.586;10.052;2023-12-20T22:02:35;7.25;;;6.10;;
47239;SDS011;32978;53.586;10.052;2023-12-20T22:07:31;9.18;;;6.70;;
47239;SDS011;32978;53.586;10.052;2023-12-20T22:12:28;11.05;;;7.07;;
47239;SDS011;32978;53.586;10.052;2023-12-20T22:17:24;11.80;;;7.05;;
47239;SDS011;32978;53.586;10.052;2023-12-20T22:22:21;8.73;;;7.82;;
47239;SDS011;32978;53.586;10.052;2023-12-20T22:27:18;10.23;;;8.18;;
47239;SDS011;32978;53.586;10.052;2023-12-20T22:32:14;13.25;;;8.38;;
47239;SDS011;32978;53.586;10.052;2023-12-20T22:37:11;13.32;;;9.25;;
47239;SDS011;32978;53.586;10.052;2023-12-20T22:42:07;13.10;;;9.55;;
47239;SDS011;32978;53.586;10.052;2023-12-20T22:47:03;10.95;;;9.80;;
47239;SDS011;32978;53.586;10.052;2023-12-20T22:52:00;12.32;;;10.00;;
47239;SDS011;32978;53.586;10.052;2023-12-20T22:56:56;14.52;;;9.43;;
47239;SDS011;32978;53.586;10.052;2023-12-20T23:01:53;9.93;;;8.35;;
47239;SDS011;32978;53.586;10.052;2023-12-20T23:06:49;10.88;;;8.75;;
47239;SDS011;32978;53.586;10.052;2023-12-20T23:11:45;7.07;;;6.38;;
47239;SDS011;32978;53.586;10.052;2023-12-20T23:16:45;7.32;;;5.60;;
47239;SDS011;32978;53.586;10.052;2023-12-20T23:21:42;5.82;;;4.32;;
47239;SDS011;32978;53.586;10.052;2023-12-20T23:26:38;6.03;;;4.10;;
47239;SDS011;32978;53.586;10.052;2023-12-20T23:31:35;4.53;;;3.47;;
47239;SDS011;32978;53.586;10.052;2023-12-20T23:36:31;5.30;;;3.38;;
47239;SDS011;32978;53.586;10.052;2023-12-20T23:41:27;8.05;;;3.67;;
47239;SDS011;32978;53.586;10.052;2023-12-20T23:46:24;5.70;;;3.50;;
47239;SDS011;32978;53.586;10.052;2023-12-20T23:51:21;7.18;;;3.28;;
47239;SDS011;32978;53.586;10.052;2023-12-20T23:56:17;7.85;;;2.67;;
